Página principal
METAR-TAF:

METAR-TAF

Aeroportos :

Ramsar, Irão

latitude: 36-54N, longitude: 050-40E, altura: -23 m

Observação actual do tempo

O boletim foi feito há 34 minutos, às 02:00 UTC
Vento 10 kt de nor-nordeste
Temperatura 12°C
Humidade 100%
Pressão 1014 hPa
Visibilidade: 2000 m
Nuvens fragmentadasa uma altura de 700 ft
Poucas nuvensa uma altura de 1700 ft, Cumulonimbus.
Encobertoa uma altura de 6000 ft
chuva

METAR: OINR 190200Z 03010KT 2000 RA BKN007 FEW017CB OVC060 12/12 Q1014

Hora: 07:04 (02:34 UTC)


TAF: em falta

Observações e previsões do tempo de mais de 4000 aeroportos (mensagens METAR e TAF).

As estações disponíveis são os pontos amarelos e vermelhos sobre o mapa.

Mova o rato sobre o mapa para ver o nome da estação.

Depois clique no ponto para visualizar as observações e previsões meteorológicas.

Para alterar o mapa : clique nos botões verdes com uma cruz preta para aumentar o zoom; no botão verde com uma pitada de zoom; ou nas setas verdes para mapas adjacentes.


METAR-TAF: